createdAt,value
2023-05-25T00:01:20.745Z,82.72
2023-05-25T00:03:52.793Z,82.01
2023-05-25T00:06:20.072Z,81.98
2023-05-25T00:08:48.681Z,81.96
2023-05-25T00:11:19.550Z,81.61
2023-05-25T00:13:46.579Z,81.30
2023-05-25T00:16:13.645Z,83.13
2023-05-25T00:18:40.703Z,81.98
2023-05-25T00:21:07.772Z,81.48
2023-05-25T00:23:34.797Z,82.14
2023-05-25T00:26:06.383Z,82.16
2023-05-25T00:28:38.110Z,81.91
2023-05-25T00:31:05.198Z,81.46
2023-05-25T00:33:32.175Z,82.13
2023-05-25T00:36:00.174Z,81.84
2023-05-25T00:38:27.337Z,81.68
2023-05-25T00:40:57.706Z,81.91
2023-05-25T00:43:30.668Z,82.16
2023-05-25T00:46:01.605Z,82.12
2023-05-25T00:48:30.908Z,81.70
2023-05-25T00:50:59.943Z,81.70
2023-05-25T00:53:29.787Z,81.23
2023-05-25T00:56:25.064Z,81.68
2023-05-25T00:58:57.015Z,82.44
2023-05-25T01:01:26.384Z,82.62
2023-05-25T01:03:56.339Z,82.27
2023-05-25T01:06:23.735Z,81.48
2023-05-25T01:09:00.266Z,81.23
2023-05-25T01:11:37.599Z,81.78
2023-05-25T01:14:05.222Z,81.73
2023-05-25T01:16:32.407Z,82.38
2023-05-25T01:19:03.901Z,82.65
2023-05-25T01:21:42.501Z,82.95
2023-05-25T01:24:22.670Z,84.09
2023-05-25T01:27:13.257Z,83.89
2023-05-25T01:29:45.604Z,84.08
2023-05-25T01:32:18.133Z,85.05
2023-05-25T01:34:46.587Z,84.69
2023-05-25T01:37:14.019Z,87.67
2023-05-25T01:39:41.736Z,87.12
2023-05-25T01:42:08.781Z,85.99
2023-05-25T01:44:37.477Z,85.84
2023-05-25T01:47:33.182Z,85.57
2023-05-25T01:50:12.446Z,86.37
2023-05-25T01:52:50.478Z,87.57
2023-05-25T01:55:22.643Z,87.26
2023-05-25T01:57:53.254Z,86.11
2023-05-25T02:00:25.119Z,86.43
2023-05-25T02:02:57.385Z,85.86
2023-05-25T02:05:24.492Z,86.63
2023-05-25T02:07:52.167Z,86.89
2023-05-25T02:10:19.180Z,88.11
2023-05-25T02:12:51.720Z,87.26
2023-05-25T02:15:19.323Z,88.07
2023-05-25T02:17:46.327Z,87.51
2023-05-25T02:20:13.876Z,86.69
2023-05-25T02:22:43.542Z,87.58
2023-05-25T02:25:12.937Z,87.42
2023-05-25T02:27:39.902Z,86.92
2023-05-25T02:30:07.895Z,87.71
2023-05-25T02:32:37.999Z,87.45
2023-05-25T02:35:07.925Z,87.39
2023-05-25T02:37:37.397Z,87.84
2023-05-25T02:40:06.420Z,87.99
2023-05-25T02:42:35.677Z,87.88
2023-05-25T02:45:06.587Z,89.04
2023-05-25T02:47:33.589Z,87.97
2023-05-25T02:50:03.119Z,87.27
2023-05-25T02:52:31.780Z,89.02
2023-05-25T02:55:01.224Z,88.57
2023-05-25T02:57:29.171Z,87.50
2023-05-25T02:59:57.078Z,87.24
2023-05-25T03:02:31.333Z,87.18
2023-05-25T03:05:03.124Z,87.57
2023-05-25T03:07:31.800Z,87.00
2023-05-25T03:09:59.657Z,88.02
2023-05-25T03:12:29.200Z,87.27
2023-05-25T03:14:58.384Z,87.60
2023-05-25T03:17:25.542Z,87.02
2023-05-25T03:19:53.297Z,87.02
2023-05-25T03:22:20.484Z,88.41
2023-05-25T03:24:50.267Z,87.54
2023-05-25T03:27:17.327Z,87.96
2023-05-25T03:29:44.235Z,88.18
2023-05-25T03:32:11.305Z,87.97
2023-05-25T03:34:40.631Z,88.90
2023-05-25T03:37:07.658Z,89.06
2023-05-25T03:39:34.645Z,88.89
2023-05-25T03:42:04.083Z,89.45
2023-05-25T03:44:31.222Z,89.04
2023-05-25T03:46:58.553Z,88.87
2023-05-25T03:49:25.737Z,88.36
2023-05-25T03:51:52.852Z,88.48
2023-05-25T03:54:19.909Z,88.62
2023-05-25T03:56:47.200Z,87.91
2023-05-25T03:59:14.250Z,87.96
2023-05-25T04:01:41.365Z,86.78
2023-05-25T04:04:11.421Z,87.85
2023-05-25T04:06:39.341Z,87.49
2023-05-25T04:09:06.380Z,87.03
2023-05-25T04:11:33.437Z,86.93
2023-05-25T04:14:00.504Z,85.44
2023-05-25T04:16:34.859Z,85.66
2023-05-25T04:19:01.840Z,85.32
2023-05-25T04:21:29.106Z,84.75
2023-05-25T04:23:56.534Z,85.36
2023-05-25T04:26:26.354Z,86.17
2023-05-25T04:28:55.943Z,85.68
2023-05-25T04:31:24.903Z,84.64
2023-05-25T04:33:56.141Z,86.27
2023-05-25T04:36:26.048Z,86.16
2023-05-25T04:38:54.729Z,85.87
2023-05-25T04:41:21.734Z,86.26
2023-05-25T04:44:05.676Z,86.21
2023-05-25T04:46:37.572Z,85.81
2023-05-25T04:49:05.709Z,85.38
2023-05-25T04:51:33.115Z,84.45
2023-05-25T04:54:00.173Z,84.50
2023-05-25T04:56:27.195Z,84.39
2023-05-25T04:58:54.295Z,84.28
2023-05-25T05:01:26.577Z,83.29
2023-05-25T05:03:53.737Z,83.21
2023-05-25T05:06:24.173Z,82.38
2023-05-25T05:08:53.626Z,83.45
2023-05-25T05:11:20.660Z,84.12
2023-05-25T05:13:47.691Z,84.55
2023-05-25T05:16:14.782Z,83.86
2023-05-25T05:18:41.795Z,83.13
2023-05-25T05:21:08.915Z,83.66
2023-05-25T05:23:36.565Z,83.76
2023-05-25T05:26:05.005Z,82.79
2023-05-25T05:28:36.595Z,83.44
2023-05-25T05:31:06.892Z,82.92
2023-05-25T05:33:34.041Z,82.28
2023-05-25T05:36:02.702Z,81.64
2023-05-25T05:38:31.978Z,82.17
2023-05-25T05:40:58.978Z,82.22
2023-05-25T05:43:28.390Z,82.27
2023-05-25T05:45:57.616Z,81.35
2023-05-25T05:48:24.638Z,80.65
2023-05-25T05:50:51.885Z,79.54
2023-05-25T05:53:18.833Z,79.46
2023-05-25T05:55:51.229Z,78.92
2023-05-25T05:58:19.961Z,78.81
2023-05-25T06:00:49.470Z,78.51
2023-05-25T06:03:16.355Z,78.83
2023-05-25T06:05:46.930Z,79.09
2023-05-25T06:08:14.304Z,78.37
2023-05-25T06:10:42.384Z,78.13
2023-05-25T06:13:09.466Z,77.82
2023-05-25T06:15:39.395Z,77.72
2023-05-25T06:18:09.751Z,77.43
2023-05-25T06:20:39.374Z,77.38
2023-05-25T06:23:14.081Z,77.96
2023-05-25T06:25:41.916Z,76.27
2023-05-25T06:28:09.400Z,76.50
2023-05-25T06:30:38.942Z,75.10
2023-05-25T06:33:06.185Z,74.09
2023-05-25T06:35:33.242Z,73.77
2023-05-25T06:38:05.445Z,72.88
2023-05-25T06:40:32.370Z,72.24
2023-05-25T06:42:59.367Z,72.11
2023-05-25T06:45:28.559Z,72.13
2023-05-25T06:47:57.974Z,72.99
2023-05-25T06:50:25.247Z,72.76
2023-05-25T06:52:52.374Z,72.74
2023-05-25T06:55:19.411Z,72.92
2023-05-25T06:57:46.809Z,72.35
2023-05-25T07:00:14.785Z,71.50
2023-05-25T07:02:41.940Z,70.56
2023-05-25T07:05:10.477Z,69.77
2023-05-25T07:07:38.131Z,67.96
2023-05-25T07:10:06.984Z,67.92
2023-05-25T07:12:34.389Z,67.32
2023-05-25T07:15:01.353Z,66.59
2023-05-25T07:17:28.845Z,65.69
2023-05-25T07:19:56.143Z,66.47
2023-05-25T07:22:23.774Z,67.81
2023-05-25T07:24:57.859Z,66.52
2023-05-25T07:27:27.839Z,65.85
2023-05-25T07:29:55.169Z,64.61
2023-05-25T07:32:22.583Z,62.33
2023-05-25T07:34:50.291Z,61.31
2023-05-25T07:37:17.289Z,60.21
2023-05-25T07:39:49.262Z,59.55
2023-05-25T07:42:21.196Z,59.37
2023-05-25T07:44:52.912Z,57.76
2023-05-25T07:47:19.960Z,57.29
2023-05-25T07:49:47.065Z,56.34
2023-05-25T07:52:16.451Z,56.82
2023-05-25T07:54:43.584Z,56.64
2023-05-25T07:57:13.015Z,56.02
2023-05-25T07:59:42.708Z,55.71
2023-05-25T08:02:14.468Z,54.85
2023-05-25T08:04:41.894Z,54.75
2023-05-25T08:07:11.514Z,53.72
2023-05-25T08:09:40.581Z,53.20
2023-05-25T08:12:30.587Z,52.55
2023-05-25T08:14:54.753Z,52.06
2023-05-25T08:17:24.749Z,52.23
2023-05-25T08:19:55.246Z,53.32
2023-05-25T08:22:24.754Z,53.68
2023-05-25T08:24:52.548Z,52.12
2023-05-25T08:27:24.364Z,50.47
2023-05-25T08:29:56.821Z,49.58
2023-05-25T08:32:26.273Z,50.16
2023-05-25T08:34:53.749Z,48.87
2023-05-25T08:37:24.972Z,48.34
2023-05-25T08:39:54.466Z,47.92
2023-05-25T08:42:21.534Z,46.10
2023-05-25T08:44:48.651Z,45.20
2023-05-25T08:47:17.930Z,45.41
2023-05-25T08:49:49.116Z,45.04
2023-05-25T08:52:21.827Z,46.22
2023-05-25T08:54:56.383Z,47.41
2023-05-25T08:57:54.843Z,47.68
2023-05-25T09:00:36.610Z,48.54
2023-05-25T09:03:10.444Z,46.98
2023-05-25T09:05:38.241Z,46.53
2023-05-25T09:08:09.653Z,45.77
2023-05-25T09:10:40.823Z,44.97
2023-05-25T09:15:37.794Z,44.37
2023-05-25T09:18:05.412Z,43.96
2023-05-25T09:20:33.090Z,44.16
2023-05-25T09:23:00.606Z,43.06
2023-05-25T09:25:30.745Z,43.11
2023-05-25T09:28:10.135Z,42.21
2023-05-25T09:30:53.567Z,41.88
2023-05-25T09:33:23.175Z,43.21
2023-05-25T09:35:52.462Z,42.57
2023-05-25T09:38:22.369Z,41.88
2023-05-25T09:40:52.532Z,41.08
2023-05-25T09:43:32.336Z,40.92
2023-05-25T09:46:11.467Z,40.16
2023-05-25T09:48:41.415Z,40.18
2023-05-25T09:51:11.392Z,41.00
2023-05-25T09:53:38.591Z,41.00
2023-05-25T09:56:06.413Z,40.40
2023-05-25T09:58:33.356Z,40.16
2023-05-25T10:01:00.949Z,39.32
2023-05-25T10:03:27.998Z,38.68
2023-05-25T10:05:57.813Z,38.63
2023-05-25T10:08:28.771Z,39.55
2023-05-25T10:11:01.609Z,39.36
2023-05-25T10:13:33.905Z,38.92
2023-05-25T10:16:02.321Z,38.71
2023-05-25T10:18:36.520Z,38.38
2023-05-25T10:21:05.285Z,37.55
2023-05-25T10:23:45.558Z,37.00
2023-05-25T10:26:20.104Z,36.95
2023-05-25T10:28:52.002Z,36.79
2023-05-25T10:31:19.537Z,37.78
2023-05-25T10:33:52.149Z,35.25
2023-05-25T10:36:21.519Z,34.88
2023-05-25T10:38:54.627Z,34.72
2023-05-25T10:41:24.002Z,34.49
2023-05-25T10:43:53.358Z,35.16
2023-05-25T10:46:21.389Z,34.68
2023-05-25T10:48:51.893Z,34.69
2023-05-25T10:51:22.395Z,33.64
2023-05-25T10:54:03.181Z,33.93
2023-05-25T10:56:30.124Z,33.68
2023-05-25T10:58:57.716Z,33.63
2023-05-25T11:01:28.333Z,32.35
2023-05-25T11:03:58.429Z,33.96
2023-05-25T11:06:48.205Z,33.77
2023-05-25T11:09:33.762Z,33.28
2023-05-25T11:12:03.437Z,33.06
2023-05-25T11:14:36.268Z,32.46
2023-05-25T11:17:19.582Z,31.70
2023-05-25T11:19:52.147Z,33.17
2023-05-25T11:22:24.173Z,33.40
2023-05-25T11:24:54.588Z,32.91
2023-05-25T11:27:30.071Z,33.32
2023-05-25T11:29:59.799Z,32.71
2023-05-25T11:32:30.014Z,33.18
2023-05-25T11:34:58.540Z,32.99
2023-05-25T11:37:31.136Z,32.93
2023-05-25T11:39:58.272Z,32.47
2023-05-25T11:42:26.399Z,31.62
2023-05-25T11:44:53.699Z,31.38
2023-05-25T11:47:25.461Z,31.12
2023-05-25T11:49:55.683Z,31.45
2023-05-25T11:52:23.395Z,32.27
2023-05-25T11:54:51.078Z,32.04
2023-05-25T11:57:24.802Z,31.85
2023-05-25T12:00:01.897Z,32.28
2023-05-25T12:02:37.580Z,31.72
2023-05-25T12:05:07.864Z,32.07
2023-05-25T12:07:47.233Z,32.85
2023-05-25T12:10:17.898Z,32.19
2023-05-25T12:12:58.203Z,32.13
2023-05-25T12:15:30.456Z,31.94
2023-05-25T12:18:00.057Z,32.20
2023-05-25T12:20:27.527Z,32.14
2023-05-25T12:22:54.720Z,31.79
2023-05-25T12:25:22.762Z,32.39
2023-05-25T12:27:49.940Z,32.63
2023-05-25T12:30:16.971Z,33.03
2023-05-25T12:33:04.961Z,31.80
2023-05-25T12:35:48.195Z,32.52
2023-05-25T12:38:22.532Z,32.32
2023-05-25T12:41:08.109Z,32.32
2023-05-25T12:43:40.235Z,32.98
2023-05-25T12:46:07.528Z,32.40
2023-05-25T12:48:34.827Z,32.00
2023-05-25T12:51:02.087Z,32.25
2023-05-25T12:53:31.613Z,32.28
2023-05-25T12:56:04.783Z,32.56
2023-05-25T12:58:31.752Z,32.15
2023-05-25T13:00:58.969Z,33.19
2023-05-25T13:03:26.238Z,32.03
2023-05-25T13:06:03.634Z,32.81
2023-05-25T13:08:31.011Z,33.08
2023-05-25T13:11:03.519Z,33.10
2023-05-25T13:13:33.149Z,31.91
2023-05-25T13:16:00.354Z,32.42
2023-05-25T13:18:27.462Z,32.16
2023-05-25T13:20:56.901Z,32.19
2023-05-25T13:23:24.417Z,32.94
2023-05-25T13:25:53.703Z,33.28
2023-05-25T13:28:30.149Z,32.91
2023-05-25T13:30:57.978Z,33.58
2023-05-25T13:33:29.612Z,33.23
2023-05-25T13:36:08.597Z,32.95
2023-05-25T13:38:39.128Z,33.24
2023-05-25T13:41:06.928Z,33.21
2023-05-25T13:43:34.186Z,33.39
2023-05-25T13:46:03.972Z,34.59
2023-05-25T13:48:31.166Z,35.05
2023-05-25T13:50:59.859Z,35.79
2023-05-25T13:53:27.747Z,35.88
2023-05-25T13:55:54.796Z,34.55
2023-05-25T13:58:21.849Z,35.28
2023-05-25T14:00:51.166Z,34.80
2023-05-25T14:03:18.334Z,34.90
2023-05-25T14:05:45.853Z,34.70
2023-05-25T14:08:17.629Z,35.12
2023-05-25T14:10:45.011Z,35.89
2023-05-25T14:13:14.346Z,36.01
2023-05-25T14:15:41.471Z,35.19
2023-05-25T14:18:08.568Z,35.44
2023-05-25T14:20:38.218Z,35.71
2023-05-25T14:23:05.551Z,34.90
2023-05-25T14:25:32.523Z,35.17
2023-05-25T14:28:04.131Z,35.48
2023-05-25T14:30:34.347Z,35.71
2023-05-25T14:33:04.521Z,36.28
2023-05-25T14:35:31.732Z,35.88
2023-05-25T14:37:58.790Z,36.29
2023-05-25T14:40:25.946Z,35.65
2023-05-25T14:42:57.990Z,36.17
2023-05-25T14:45:27.574Z,36.31
2023-05-25T14:48:03.948Z,35.72
2023-05-25T14:50:43.912Z,35.93
2023-05-25T14:53:11.016Z,35.29
2023-05-25T14:55:37.917Z,35.90
2023-05-25T14:58:04.906Z,35.64
2023-05-25T15:00:34.147Z,35.42
2023-05-25T15:03:01.396Z,36.38
2023-05-25T15:05:28.536Z,35.93
2023-05-25T15:07:55.710Z,35.76
2023-05-25T15:10:22.761Z,36.18
2023-05-25T15:12:49.831Z,36.62
2023-05-25T15:15:17.161Z,36.90
2023-05-25T15:17:44.429Z,36.19
2023-05-25T15:20:15.132Z,36.80
2023-05-25T15:22:42.325Z,36.75
2023-05-25T15:25:16.930Z,36.86
2023-05-25T15:27:48.738Z,37.38
2023-05-25T15:30:20.935Z,37.59
2023-05-25T15:32:49.246Z,37.71
2023-05-25T15:35:19.371Z,38.08
2023-05-25T15:37:51.346Z,37.88
2023-05-25T15:40:20.784Z,37.94
2023-05-25T15:42:48.128Z,37.48
2023-05-25T15:45:20.001Z,37.41
2023-05-25T15:47:47.168Z,37.06
2023-05-25T15:50:17.158Z,38.18
2023-05-25T15:52:46.818Z,38.57
2023-05-25T15:55:14.157Z,37.50
2023-05-25T15:57:47.545Z,37.89
2023-05-25T16:00:15.543Z,38.59
2023-05-25T16:02:42.681Z,39.07
2023-05-25T16:05:12.597Z,38.92
2023-05-25T16:07:39.782Z,38.61
2023-05-25T16:10:10.699Z,39.15
2023-05-25T16:12:38.034Z,39.14
2023-05-25T16:15:05.874Z,39.55
2023-05-25T16:17:33.041Z,40.15
2023-05-25T16:20:00.299Z,40.32
2023-05-25T16:22:27.375Z,40.06
2023-05-25T16:24:54.453Z,40.46
2023-05-25T16:27:21.572Z,40.71
2023-05-25T16:29:48.546Z,40.73
2023-05-25T16:32:15.561Z,40.86
2023-05-25T16:34:45.214Z,40.42
2023-05-25T16:37:14.642Z,40.39
2023-05-25T16:39:41.827Z,40.85
2023-05-25T16:42:11.290Z,40.88
2023-05-25T16:44:42.895Z,40.59
2023-05-25T16:47:12.179Z,40.51
2023-05-25T16:49:39.293Z,40.33
2023-05-25T16:52:06.411Z,40.66
2023-05-25T16:54:35.976Z,41.36
2023-05-25T16:57:03.180Z,41.91
2023-05-25T16:59:30.287Z,42.36
2023-05-25T17:01:57.720Z,42.72
2023-05-25T17:04:24.941Z,42.87
2023-05-25T17:06:52.202Z,43.53
2023-05-25T17:09:19.484Z,44.29
2023-05-25T17:11:46.554Z,44.63
2023-05-25T17:14:16.432Z,45.17
2023-05-25T17:16:46.159Z,46.19
2023-05-25T17:19:15.038Z,46.07
2023-05-25T17:21:44.495Z,46.19
2023-05-25T17:24:11.779Z,46.10
2023-05-25T17:26:38.854Z,46.75
2023-05-25T17:29:08.251Z,47.73
2023-05-25T17:31:38.044Z,48.31
2023-05-25T17:34:05.106Z,48.40
2023-05-25T17:36:37.284Z,48.52
2023-05-25T17:39:07.143Z,48.65
2023-05-25T17:41:36.672Z,48.79
2023-05-25T17:44:06.003Z,48.76
2023-05-25T17:46:36.298Z,49.37
2023-05-25T17:49:06.048Z,49.99
2023-05-25T17:51:35.351Z,50.42
2023-05-25T17:54:05.855Z,50.41
2023-05-25T17:56:33.112Z,50.69
2023-05-25T17:59:00.385Z,50.85
2023-05-25T18:01:27.395Z,50.88
2023-05-25T18:03:57.676Z,51.63
2023-05-25T18:06:26.202Z,52.28
2023-05-25T18:08:57.449Z,52.77
2023-05-25T18:11:24.557Z,52.45
2023-05-25T18:13:51.719Z,52.55
2023-05-25T18:16:18.972Z,52.10
2023-05-25T18:18:46.107Z,52.84
2023-05-25T18:21:13.346Z,52.61
2023-05-25T18:23:40.523Z,53.61
2023-05-25T18:26:09.694Z,53.40
2023-05-25T18:28:39.033Z,53.68
2023-05-25T18:31:06.314Z,53.82
2023-05-25T18:33:33.530Z,54.45
2023-05-25T18:36:00.754Z,54.38
2023-05-25T18:38:27.880Z,55.19
2023-05-25T18:41:06.120Z,55.28
2023-05-25T18:43:35.741Z,56.16
2023-05-25T18:46:07.451Z,56.21
2023-05-25T18:48:37.522Z,56.40
2023-05-25T18:51:07.679Z,56.67
2023-05-25T18:53:34.812Z,56.64
2023-05-25T18:56:07.009Z,56.65
2023-05-25T18:58:33.989Z,57.06
2023-05-25T19:01:00.907Z,56.93
2023-05-25T19:03:28.531Z,57.61
2023-05-25T19:05:56.399Z,58.01
2023-05-25T19:08:23.589Z,58.74
2023-05-25T19:10:50.866Z,58.95
2023-05-25T19:13:25.581Z,59.02
2023-05-25T19:15:55.948Z,59.32
2023-05-25T19:18:23.885Z,59.38
2023-05-25T19:20:54.097Z,60.21
2023-05-25T19:23:25.874Z,59.79
2023-05-25T19:25:53.114Z,59.83
2023-05-25T19:28:22.205Z,60.06
2023-05-25T19:30:52.364Z,60.17
2023-05-25T19:33:19.788Z,61.13
2023-05-25T19:35:47.523Z,61.17
2023-05-25T19:38:16.926Z,61.76
2023-05-25T19:40:46.360Z,61.93
2023-05-25T19:43:14.026Z,61.89
2023-05-25T19:45:45.756Z,62.00
2023-05-25T19:48:13.219Z,62.27
2023-05-25T19:50:41.036Z,62.58
2023-05-25T19:53:08.156Z,62.62
2023-05-25T19:55:39.081Z,62.68
2023-05-25T19:58:11.287Z,62.76
2023-05-25T20:00:38.794Z,63.14
2023-05-25T20:03:06.139Z,62.83
2023-05-25T20:05:33.204Z,63.40
2023-05-25T20:08:00.564Z,63.54
2023-05-25T20:10:28.012Z,63.89
2023-05-25T20:12:56.681Z,64.47
2023-05-25T20:15:25.037Z,64.87
2023-05-25T20:17:52.933Z,64.91
2023-05-25T20:20:22.079Z,65.30
2023-05-25T20:22:51.037Z,65.79
2023-05-25T20:25:18.768Z,66.58
2023-05-25T20:27:45.885Z,66.46
2023-05-25T20:30:17.387Z,66.38
2023-05-25T20:32:44.502Z,66.30
2023-05-25T20:35:13.897Z,65.56
2023-05-25T20:37:43.906Z,66.03
2023-05-25T20:40:11.657Z,66.20
2023-05-25T20:42:39.512Z,66.36
2023-05-25T20:45:07.489Z,66.86
2023-05-25T20:47:39.373Z,66.61
2023-05-25T20:50:24.300Z,66.94
2023-05-25T20:52:54.545Z,66.70
2023-05-25T20:55:24.377Z,66.64
2023-05-25T20:57:51.325Z,67.05
2023-05-25T21:00:20.661Z,66.70
2023-05-25T21:02:50.758Z,66.38
2023-05-25T21:05:18.105Z,66.86
2023-05-25T21:07:46.282Z,67.04
2023-05-25T21:10:16.506Z,67.04
2023-05-25T21:12:44.299Z,67.29
2023-05-25T21:15:17.177Z,67.68
2023-05-25T21:17:44.886Z,67.84
2023-05-25T21:20:12.440Z,67.41
2023-05-25T21:22:42.909Z,67.06
2023-05-25T21:25:10.663Z,66.67
2023-05-25T21:27:40.464Z,66.37
2023-05-25T21:30:13.092Z,67.38
2023-05-25T21:32:43.500Z,67.43
2023-05-25T21:35:11.036Z,67.66
2023-05-25T21:37:38.849Z,67.04
2023-05-25T21:40:07.554Z,67.63
2023-05-25T21:42:34.598Z,67.64
2023-05-25T21:45:02.687Z,67.47
2023-05-25T21:47:33.546Z,66.92
2023-05-25T21:50:03.531Z,67.40
2023-05-25T21:52:30.972Z,67.93
2023-05-25T21:55:00.523Z,67.41
2023-05-25T21:57:30.613Z,66.99
2023-05-25T21:59:57.657Z,67.15
2023-05-25T22:02:24.885Z,67.61
2023-05-25T22:04:52.029Z,67.33
2023-05-25T22:07:21.379Z,66.83
2023-05-25T22:09:48.618Z,68.05
2023-05-25T22:12:18.060Z,68.02
2023-05-25T22:14:47.756Z,67.58
2023-05-25T22:17:18.150Z,67.50
2023-05-25T22:19:58.999Z,67.46
2023-05-25T22:22:36.644Z,66.47
2023-05-25T22:25:08.582Z,66.96
2023-05-25T22:27:43.007Z,67.21
2023-05-25T22:30:10.711Z,67.88
2023-05-25T22:32:37.763Z,67.34
2023-05-25T22:35:07.833Z,67.03
2023-05-25T22:37:37.179Z,67.31
2023-05-25T22:40:06.685Z,67.95
2023-05-25T22:42:36.254Z,68.01
2023-05-25T22:45:05.861Z,67.94
2023-05-25T22:47:33.092Z,67.60
2023-05-25T22:50:02.546Z,67.64
2023-05-25T22:52:29.604Z,67.97
2023-05-25T22:54:59.456Z,68.07
2023-05-25T22:57:26.551Z,67.85
2023-05-25T22:59:53.671Z,67.33
2023-05-25T23:02:23.734Z,67.79
2023-05-25T23:04:50.965Z,68.41
2023-05-25T23:07:20.413Z,67.47
2023-05-25T23:09:47.732Z,67.43
2023-05-25T23:12:14.799Z,67.62
2023-05-25T23:14:44.469Z,68.58
2023-05-25T23:17:14.201Z,68.19
2023-05-25T23:19:44.831Z,67.85
2023-05-25T23:22:14.562Z,68.61
2023-05-25T23:24:41.739Z,68.28
2023-05-25T23:27:08.834Z,68.09
2023-05-25T23:29:36.278Z,68.29
2023-05-25T23:32:03.844Z,70.00
2023-05-25T23:34:31.208Z,69.33
2023-05-25T23:36:58.688Z,70.03
2023-05-25T23:39:25.970Z,69.24
2023-05-25T23:41:53.081Z,69.17
2023-05-25T23:44:22.499Z,69.88
2023-05-25T23:46:49.608Z,70.10
2023-05-25T23:49:19.434Z,69.74
2023-05-25T23:51:46.508Z,70.19
2023-05-25T23:54:13.749Z,69.83
2023-05-25T23:56:41.249Z,69.39
2023-05-25T23:59:15.191Z,69.55
